sensor_id;sensor_type;location;lat;lon;timestamp;P1;durP1;ratioP1;P2;durP2;ratioP2
2896;SDS011;1458;49.728;9.228;2023-05-07T00:01:39;0.20;;;0.20;;
2896;SDS011;1458;49.728;9.228;2023-05-07T00:04:07;0.20;;;0.20;;
2896;SDS011;1458;49.728;9.228;2023-05-07T00:06:34;0.20;;;0.20;;
2896;SDS011;1458;49.728;9.228;2023-05-07T00:09:02;0.10;;;0.10;;
2896;SDS011;1458;49.728;9.228;2023-05-07T00:11:29;0.10;;;0.10;;
2896;SDS011;1458;49.728;9.228;2023-05-07T00:13:57;0.20;;;0.20;;
2896;SDS011;1458;49.728;9.228;2023-05-07T00:16:24;0.20;;;0.20;;
2896;SDS011;1458;49.728;9.228;2023-05-07T00:18:53;0.20;;;0.20;;
2896;SDS011;1458;49.728;9.228;2023-05-07T00:21:20;0.20;;;0.20;;
2896;SDS011;1458;49.728;9.228;2023-05-07T00:23:48;0.20;;;0.20;;
2896;SDS011;1458;49.728;9.228;2023-05-07T00:26:15;0.20;;;0.20;;
2896;SDS011;1458;49.728;9.228;2023-05-07T00:28:44;0.20;;;0.20;;
2896;SDS011;1458;49.728;9.228;2023-05-07T00:31:12;0.20;;;0.20;;
2896;SDS011;1458;49.728;9.228;2023-05-07T00:33:39;0.10;;;0.10;;
2896;SDS011;1458;49.728;9.228;2023-05-07T00:36:08;0.10;;;0.10;;
2896;SDS011;1458;49.728;9.228;2023-05-07T00:38:36;0.10;;;0.10;;
2896;SDS011;1458;49.728;9.228;2023-05-07T00:41:03;0.10;;;0.10;;
2896;SDS011;1458;49.728;9.228;2023-05-07T00:43:31;0.10;;;0.10;;
2896;SDS011;1458;49.728;9.228;2023-05-07T00:45:58;0.20;;;0.20;;
2896;SDS011;1458;49.728;9.228;2023-05-07T00:48:26;0.10;;;0.10;;
2896;SDS011;1458;49.728;9.228;2023-05-07T00:50:54;0.20;;;0.20;;
2896;SDS011;1458;49.728;9.228;2023-05-07T00:53:23;0.20;;;0.20;;
2896;SDS011;1458;49.728;9.228;2023-05-07T00:55:51;0.20;;;0.20;;
2896;SDS011;1458;49.728;9.228;2023-05-07T00:58:19;0.20;;;0.20;;
2896;SDS011;1458;49.728;9.228;2023-05-07T01:00:47;0.20;;;0.20;;
2896;SDS011;1458;49.728;9.228;2023-05-07T01:03:15;0.10;;;0.10;;
2896;SDS011;1458;49.728;9.228;2023-05-07T01:05:42;0.20;;;0.20;;
2896;SDS011;1458;49.728;9.228;2023-05-07T01:08:12;0.10;;;0.10;;
2896;SDS011;1458;49.728;9.228;2023-05-07T01:10:43;0.10;;;0.10;;
2896;SDS011;1458;49.728;9.228;2023-05-07T01:13:12;0.20;;;0.20;;
2896;SDS011;1458;49.728;9.228;2023-05-07T01:15:41;0.10;;;0.10;;
2896;SDS011;1458;49.728;9.228;2023-05-07T01:18:10;0.20;;;0.20;;
2896;SDS011;1458;49.728;9.228;2023-05-07T01:20:38;0.10;;;0.10;;
2896;SDS011;1458;49.728;9.228;2023-05-07T01:23:06;0.20;;;0.20;;
2896;SDS011;1458;49.728;9.228;2023-05-07T01:25:35;0.20;;;0.20;;
2896;SDS011;1458;49.728;9.228;2023-05-07T01:28:03;0.20;;;0.20;;
2896;SDS011;1458;49.728;9.228;2023-05-07T01:30:34;0.20;;;0.20;;
2896;SDS011;1458;49.728;9.228;2023-05-07T01:33:06;0.10;;;0.10;;
2896;SDS011;1458;49.728;9.228;2023-05-07T01:35:38;0.13;;;0.13;;
2896;SDS011;1458;49.728;9.228;2023-05-07T01:38:10;0.20;;;0.20;;
2896;SDS011;1458;49.728;9.228;2023-05-07T01:40:38;0.20;;;0.20;;
2896;SDS011;1458;49.728;9.228;2023-05-07T01:43:06;0.20;;;0.20;;
2896;SDS011;1458;49.728;9.228;2023-05-07T01:45:35;0.13;;;0.13;;
2896;SDS011;1458;49.728;9.228;2023-05-07T01:48:03;0.20;;;0.20;;
2896;SDS011;1458;49.728;9.228;2023-05-07T01:50:32;0.20;;;0.20;;
2896;SDS011;1458;49.728;9.228;2023-05-07T01:53:01;0.23;;;0.23;;
2896;SDS011;1458;49.728;9.228;2023-05-07T01:55:30;0.20;;;0.20;;
2896;SDS011;1458;49.728;9.228;2023-05-07T01:57:58;0.10;;;0.10;;
2896;SDS011;1458;49.728;9.228;2023-05-07T02:00:25;0.20;;;0.20;;
2896;SDS011;1458;49.728;9.228;2023-05-07T02:02:53;0.20;;;0.20;;
2896;SDS011;1458;49.728;9.228;2023-05-07T02:05:29;0.13;;;0.13;;
2896;SDS011;1458;49.728;9.228;2023-05-07T02:08:02;0.10;;;0.10;;
2896;SDS011;1458;49.728;9.228;2023-05-07T02:10:32;0.20;;;0.20;;
2896;SDS011;1458;49.728;9.228;2023-05-07T02:12:59;0.10;;;0.10;;
2896;SDS011;1458;49.728;9.228;2023-05-07T02:15:27;0.20;;;0.20;;
2896;SDS011;1458;49.728;9.228;2023-05-07T02:17:59;0.20;;;0.20;;
2896;SDS011;1458;49.728;9.228;2023-05-07T02:20:28;0.20;;;0.20;;
2896;SDS011;1458;49.728;9.228;2023-05-07T02:22:56;0.10;;;0.10;;
2896;SDS011;1458;49.728;9.228;2023-05-07T02:25:25;0.20;;;0.20;;
2896;SDS011;1458;49.728;9.228;2023-05-07T02:27:55;0.10;;;0.10;;
2896;SDS011;1458;49.728;9.228;2023-05-07T02:30:32;0.20;;;0.20;;
2896;SDS011;1458;49.728;9.228;2023-05-07T02:33:00;0.20;;;0.20;;
2896;SDS011;1458;49.728;9.228;2023-05-07T02:35:28;0.10;;;0.10;;
2896;SDS011;1458;49.728;9.228;2023-05-07T02:37:55;0.10;;;0.10;;
2896;SDS011;1458;49.728;9.228;2023-05-07T02:40:24;0.30;;;0.30;;
2896;SDS011;1458;49.728;9.228;2023-05-07T02:42:51;0.10;;;0.10;;
2896;SDS011;1458;49.728;9.228;2023-05-07T02:45:20;0.20;;;0.20;;
2896;SDS011;1458;49.728;9.228;2023-05-07T02:47:50;0.20;;;0.20;;
2896;SDS011;1458;49.728;9.228;2023-05-07T02:50:18;0.10;;;0.10;;
2896;SDS011;1458;49.728;9.228;2023-05-07T02:52:46;0.10;;;0.10;;
2896;SDS011;1458;49.728;9.228;2023-05-07T02:55:13;0.10;;;0.10;;
2896;SDS011;1458;49.728;9.228;2023-05-07T02:57:41;0.20;;;0.20;;
2896;SDS011;1458;49.728;9.228;2023-05-07T03:00:12;0.20;;;0.20;;
2896;SDS011;1458;49.728;9.228;2023-05-07T03:02:50;0.20;;;0.20;;
2896;SDS011;1458;49.728;9.228;2023-05-07T03:05:18;0.20;;;0.20;;
2896;SDS011;1458;49.728;9.228;2023-05-07T03:07:45;0.20;;;0.20;;
2896;SDS011;1458;49.728;9.228;2023-05-07T03:10:14;0.10;;;0.10;;
2896;SDS011;1458;49.728;9.228;2023-05-07T03:12:41;0.20;;;0.20;;
2896;SDS011;1458;49.728;9.228;2023-05-07T03:15:13;0.10;;;0.10;;
2896;SDS011;1458;49.728;9.228;2023-05-07T03:17:41;0.20;;;0.20;;
2896;SDS011;1458;49.728;9.228;2023-05-07T03:20:10;0.20;;;0.20;;
2896;SDS011;1458;49.728;9.228;2023-05-07T03:22:39;0.10;;;0.10;;
2896;SDS011;1458;49.728;9.228;2023-05-07T03:25:07;0.10;;;0.10;;
2896;SDS011;1458;49.728;9.228;2023-05-07T03:27:35;0.20;;;0.20;;
2896;SDS011;1458;49.728;9.228;2023-05-07T03:30:04;0.17;;;0.17;;
2896;SDS011;1458;49.728;9.228;2023-05-07T03:32:33;0.20;;;0.20;;
2896;SDS011;1458;49.728;9.228;2023-05-07T03:35:04;0.20;;;0.20;;
2896;SDS011;1458;49.728;9.228;2023-05-07T03:37:34;0.20;;;0.20;;
2896;SDS011;1458;49.728;9.228;2023-05-07T03:40:01;0.30;;;0.30;;
2896;SDS011;1458;49.728;9.228;2023-05-07T03:42:34;0.20;;;0.20;;
2896;SDS011;1458;49.728;9.228;2023-05-07T03:45:02;0.20;;;0.20;;
2896;SDS011;1458;49.728;9.228;2023-05-07T03:47:30;0.10;;;0.10;;
2896;SDS011;1458;49.728;9.228;2023-05-07T03:49:58;0.20;;;0.20;;
2896;SDS011;1458;49.728;9.228;2023-05-07T03:52:25;0.10;;;0.10;;
2896;SDS011;1458;49.728;9.228;2023-05-07T03:54:57;0.20;;;0.20;;
2896;SDS011;1458;49.728;9.228;2023-05-07T03:57:25;0.20;;;0.20;;
2896;SDS011;1458;49.728;9.228;2023-05-07T03:59:53;0.20;;;0.20;;
2896;SDS011;1458;49.728;9.228;2023-05-07T04:02:20;0.10;;;0.10;;
2896;SDS011;1458;49.728;9.228;2023-05-07T04:04:48;0.20;;;0.20;;
2896;SDS011;1458;49.728;9.228;2023-05-07T04:07:15;0.20;;;0.20;;
2896;SDS011;1458;49.728;9.228;2023-05-07T04:09:47;0.20;;;0.20;;
2896;SDS011;1458;49.728;9.228;2023-05-07T04:12:16;0.20;;;0.20;;
2896;SDS011;1458;49.728;9.228;2023-05-07T04:14:44;0.20;;;0.20;;
2896;SDS011;1458;49.728;9.228;2023-05-07T04:17:12;0.20;;;0.20;;
2896;SDS011;1458;49.728;9.228;2023-05-07T04:19:39;0.20;;;0.20;;
2896;SDS011;1458;49.728;9.228;2023-05-07T04:22:11;0.10;;;0.10;;
2896;SDS011;1458;49.728;9.228;2023-05-07T04:24:38;0.20;;;0.20;;
2896;SDS011;1458;49.728;9.228;2023-05-07T04:27:06;0.20;;;0.20;;
2896;SDS011;1458;49.728;9.228;2023-05-07T04:29:34;0.10;;;0.10;;
2896;SDS011;1458;49.728;9.228;2023-05-07T04:32:02;0.10;;;0.10;;
2896;SDS011;1458;49.728;9.228;2023-05-07T04:34:30;0.20;;;0.20;;
2896;SDS011;1458;49.728;9.228;2023-05-07T04:36:59;0.17;;;0.17;;
2896;SDS011;1458;49.728;9.228;2023-05-07T04:39:27;0.20;;;0.20;;
2896;SDS011;1458;49.728;9.228;2023-05-07T04:41:55;0.13;;;0.13;;
2896;SDS011;1458;49.728;9.228;2023-05-07T04:44:22;0.20;;;0.20;;
2896;SDS011;1458;49.728;9.228;2023-05-07T04:46:51;0.20;;;0.20;;
2896;SDS011;1458;49.728;9.228;2023-05-07T04:49:19;0.10;;;0.10;;
2896;SDS011;1458;49.728;9.228;2023-05-07T04:51:47;0.10;;;0.10;;
2896;SDS011;1458;49.728;9.228;2023-05-07T04:54:18;0.10;;;0.10;;
2896;SDS011;1458;49.728;9.228;2023-05-07T04:56:45;0.10;;;0.10;;
2896;SDS011;1458;49.728;9.228;2023-05-07T04:59:13;0.10;;;0.10;;
2896;SDS011;1458;49.728;9.228;2023-05-07T05:01:40;0.17;;;0.17;;
2896;SDS011;1458;49.728;9.228;2023-05-07T05:04:09;0.10;;;0.10;;
2896;SDS011;1458;49.728;9.228;2023-05-07T05:06:37;0.13;;;0.13;;
2896;SDS011;1458;49.728;9.228;2023-05-07T05:09:05;0.20;;;0.20;;
2896;SDS011;1458;49.728;9.228;2023-05-07T05:11:33;0.10;;;0.10;;
2896;SDS011;1458;49.728;9.228;2023-05-07T05:14:01;0.20;;;0.20;;
2896;SDS011;1458;49.728;9.228;2023-05-07T05:16:28;0.30;;;0.30;;
2896;SDS011;1458;49.728;9.228;2023-05-07T05:18:56;0.10;;;0.10;;
2896;SDS011;1458;49.728;9.228;2023-05-07T05:21:25;0.20;;;0.20;;
2896;SDS011;1458;49.728;9.228;2023-05-07T05:23:57;0.10;;;0.10;;
2896;SDS011;1458;49.728;9.228;2023-05-07T05:26:25;0.10;;;0.10;;
2896;SDS011;1458;49.728;9.228;2023-05-07T05:28:52;0.10;;;0.10;;
2896;SDS011;1458;49.728;9.228;2023-05-07T05:31:22;0.10;;;0.10;;
2896;SDS011;1458;49.728;9.228;2023-05-07T05:33:50;0.20;;;0.20;;
2896;SDS011;1458;49.728;9.228;2023-05-07T05:36:18;0.20;;;0.20;;
2896;SDS011;1458;49.728;9.228;2023-05-07T05:38:48;0.10;;;0.10;;
2896;SDS011;1458;49.728;9.228;2023-05-07T05:41:16;0.10;;;0.10;;
2896;SDS011;1458;49.728;9.228;2023-05-07T05:43:43;0.17;;;0.17;;
2896;SDS011;1458;49.728;9.228;2023-05-07T05:46:11;0.30;;;0.30;;
2896;SDS011;1458;49.728;9.228;2023-05-07T05:48:38;0.20;;;0.20;;
2896;SDS011;1458;49.728;9.228;2023-05-07T05:51:06;0.20;;;0.20;;
2896;SDS011;1458;49.728;9.228;2023-05-07T05:53:34;0.20;;;0.20;;
2896;SDS011;1458;49.728;9.228;2023-05-07T05:56:04;0.10;;;0.10;;
2896;SDS011;1458;49.728;9.228;2023-05-07T05:58:33;0.10;;;0.10;;
2896;SDS011;1458;49.728;9.228;2023-05-07T06:01:04;0.20;;;0.20;;
2896;SDS011;1458;49.728;9.228;2023-05-07T06:03:33;0.10;;;0.10;;
2896;SDS011;1458;49.728;9.228;2023-05-07T06:06:04;0.20;;;0.20;;
2896;SDS011;1458;49.728;9.228;2023-05-07T06:08:32;0.20;;;0.20;;
2896;SDS011;1458;49.728;9.228;2023-05-07T06:11:00;0.20;;;0.20;;
2896;SDS011;1458;49.728;9.228;2023-05-07T06:13:32;0.20;;;0.20;;
2896;SDS011;1458;49.728;9.228;2023-05-07T06:16:00;0.20;;;0.20;;
2896;SDS011;1458;49.728;9.228;2023-05-07T06:18:28;0.27;;;0.27;;
2896;SDS011;1458;49.728;9.228;2023-05-07T06:20:56;0.20;;;0.20;;
2896;SDS011;1458;49.728;9.228;2023-05-07T06:23:26;0.20;;;0.20;;
2896;SDS011;1458;49.728;9.228;2023-05-07T06:25:54;0.20;;;0.20;;
2896;SDS011;1458;49.728;9.228;2023-05-07T06:28:26;0.20;;;0.20;;
2896;SDS011;1458;49.728;9.228;2023-05-07T06:31:06;0.30;;;0.30;;
2896;SDS011;1458;49.728;9.228;2023-05-07T06:33:39;0.30;;;0.30;;
2896;SDS011;1458;49.728;9.228;2023-05-07T06:36:07;0.43;;;0.43;;
2896;SDS011;1458;49.728;9.228;2023-05-07T06:38:35;0.40;;;0.40;;
2896;SDS011;1458;49.728;9.228;2023-05-07T06:41:03;0.40;;;0.40;;
2896;SDS011;1458;49.728;9.228;2023-05-07T06:43:31;0.43;;;0.43;;
2896;SDS011;1458;49.728;9.228;2023-05-07T06:46:23;0.47;;;0.47;;
2896;SDS011;1458;49.728;9.228;2023-05-07T06:48:50;0.50;;;0.50;;
2896;SDS011;1458;49.728;9.228;2023-05-07T06:51:19;0.50;;;0.50;;
2896;SDS011;1458;49.728;9.228;2023-05-07T06:53:46;0.63;;;0.63;;
2896;SDS011;1458;49.728;9.228;2023-05-07T06:56:14;0.70;;;0.70;;
2896;SDS011;1458;49.728;9.228;2023-05-07T06:58:41;0.50;;;0.50;;
2896;SDS011;1458;49.728;9.228;2023-05-07T07:01:10;0.50;;;0.50;;
2896;SDS011;1458;49.728;9.228;2023-05-07T07:03:39;0.70;;;0.70;;
2896;SDS011;1458;49.728;9.228;2023-05-07T07:06:06;0.90;;;0.90;;
2896;SDS011;1458;49.728;9.228;2023-05-07T07:08:34;0.80;;;0.80;;
2896;SDS011;1458;49.728;9.228;2023-05-07T07:11:04;1.00;;;1.00;;
2896;SDS011;1458;49.728;9.228;2023-05-07T07:13:31;1.17;;;1.17;;
2896;SDS011;1458;49.728;9.228;2023-05-07T07:15:59;1.10;;;1.10;;
2896;SDS011;1458;49.728;9.228;2023-05-07T07:18:27;1.10;;;1.10;;
2896;SDS011;1458;49.728;9.228;2023-05-07T07:20:58;1.60;;;1.60;;
2896;SDS011;1458;49.728;9.228;2023-05-07T07:23:26;1.40;;;1.40;;
2896;SDS011;1458;49.728;9.228;2023-05-07T07:25:53;1.50;;;1.50;;
2896;SDS011;1458;49.728;9.228;2023-05-07T07:28:21;1.60;;;1.60;;
2896;SDS011;1458;49.728;9.228;2023-05-07T07:30:48;1.77;;;1.77;;
2896;SDS011;1458;49.728;9.228;2023-05-07T07:33:16;1.97;;;1.97;;
2896;SDS011;1458;49.728;9.228;2023-05-07T07:35:44;1.83;;;1.83;;
2896;SDS011;1458;49.728;9.228;2023-05-07T07:38:13;2.33;;;2.33;;
2896;SDS011;1458;49.728;9.228;2023-05-07T07:40:41;2.70;;;2.70;;
2896;SDS011;1458;49.728;9.228;2023-05-07T07:43:09;2.97;;;2.97;;
2896;SDS011;1458;49.728;9.228;2023-05-07T07:45:37;2.80;;;2.80;;
2896;SDS011;1458;49.728;9.228;2023-05-07T07:48:05;3.40;;;3.40;;
2896;SDS011;1458;49.728;9.228;2023-05-07T07:50:36;3.60;;;3.60;;
2896;SDS011;1458;49.728;9.228;2023-05-07T07:53:03;3.73;;;3.73;;
2896;SDS011;1458;49.728;9.228;2023-05-07T07:55:32;4.00;;;4.00;;
2896;SDS011;1458;49.728;9.228;2023-05-07T07:58:05;5.60;;;5.60;;
2896;SDS011;1458;49.728;9.228;2023-05-07T08:00:33;5.17;;;5.17;;
2896;SDS011;1458;49.728;9.228;2023-05-07T08:03:00;5.40;;;5.40;;
2896;SDS011;1458;49.728;9.228;2023-05-07T08:05:32;6.03;;;6.03;;
2896;SDS011;1458;49.728;9.228;2023-05-07T08:08:01;5.80;;;5.80;;
2896;SDS011;1458;49.728;9.228;2023-05-07T08:10:33;5.70;;;5.70;;
2896;SDS011;1458;49.728;9.228;2023-05-07T08:13:08;5.33;;;5.33;;
2896;SDS011;1458;49.728;9.228;2023-05-07T08:15:37;5.40;;;5.40;;
2896;SDS011;1458;49.728;9.228;2023-05-07T08:18:05;5.13;;;5.13;;
2896;SDS011;1458;49.728;9.228;2023-05-07T08:20:33;6.30;;;6.30;;
2896;SDS011;1458;49.728;9.228;2023-05-07T08:23:05;5.90;;;5.90;;
2896;SDS011;1458;49.728;9.228;2023-05-07T08:25:34;6.07;;;6.07;;
2896;SDS011;1458;49.728;9.228;2023-05-07T08:28:03;7.00;;;6.90;;
2896;SDS011;1458;49.728;9.228;2023-05-07T08:30:30;6.93;;;6.83;;
2896;SDS011;1458;49.728;9.228;2023-05-07T08:32:58;7.00;;;6.90;;
2896;SDS011;1458;49.728;9.228;2023-05-07T08:35:26;7.30;;;7.20;;
2896;SDS011;1458;49.728;9.228;2023-05-07T08:37:54;7.37;;;7.27;;
2896;SDS011;1458;49.728;9.228;2023-05-07T08:40:22;7.50;;;7.40;;
2896;SDS011;1458;49.728;9.228;2023-05-07T08:42:55;7.67;;;7.57;;
2896;SDS011;1458;49.728;9.228;2023-05-07T08:45:23;7.50;;;7.40;;
2896;SDS011;1458;49.728;9.228;2023-05-07T08:47:55;6.40;;;6.40;;
2896;SDS011;1458;49.728;9.228;2023-05-07T08:50:30;6.90;;;6.80;;
2896;SDS011;1458;49.728;9.228;2023-05-07T08:52:58;6.70;;;6.60;;
2896;SDS011;1458;49.728;9.228;2023-05-07T08:55:26;6.60;;;6.60;;
2896;SDS011;1458;49.728;9.228;2023-05-07T08:57:57;6.90;;;6.80;;
2896;SDS011;1458;49.728;9.228;2023-05-07T09:00:25;7.57;;;7.47;;
2896;SDS011;1458;49.728;9.228;2023-05-07T09:02:54;6.90;;;6.80;;
2896;SDS011;1458;49.728;9.228;2023-05-07T09:05:23;7.53;;;7.43;;
2896;SDS011;1458;49.728;9.228;2023-05-07T09:07:50;7.60;;;7.50;;
2896;SDS011;1458;49.728;9.228;2023-05-07T09:10:19;8.20;;;8.10;;
2896;SDS011;1458;49.728;9.228;2023-05-07T09:12:48;8.00;;;7.90;;
2896;SDS011;1458;49.728;9.228;2023-05-07T09:15:17;8.60;;;8.50;;
2896;SDS011;1458;49.728;9.228;2023-05-07T09:17:45;7.80;;;7.70;;
2896;SDS011;1458;49.728;9.228;2023-05-07T09:20:13;7.33;;;7.23;;
2896;SDS011;1458;49.728;9.228;2023-05-07T09:22:41;7.90;;;7.80;;
2896;SDS011;1458;49.728;9.228;2023-05-07T09:25:13;8.23;;;8.13;;
2896;SDS011;1458;49.728;9.228;2023-05-07T09:27:41;8.53;;;8.43;;
2896;SDS011;1458;49.728;9.228;2023-05-07T09:30:10;8.03;;;7.93;;
2896;SDS011;1458;49.728;9.228;2023-05-07T09:32:40;9.10;;;8.90;;
2896;SDS011;1458;49.728;9.228;2023-05-07T09:35:14;8.57;;;8.47;;
2896;SDS011;1458;49.728;9.228;2023-05-07T09:37:45;8.10;;;8.00;;
2896;SDS011;1458;49.728;9.228;2023-05-07T09:40:20;8.30;;;8.20;;
2896;SDS011;1458;49.728;9.228;2023-05-07T09:42:49;8.43;;;8.33;;
2896;SDS011;1458;49.728;9.228;2023-05-07T09:45:21;8.70;;;8.60;;
2896;SDS011;1458;49.728;9.228;2023-05-07T09:47:53;8.63;;;8.50;;
2896;SDS011;1458;49.728;9.228;2023-05-07T09:50:25;9.37;;;9.17;;
2896;SDS011;1458;49.728;9.228;2023-05-07T09:52:55;8.70;;;8.60;;
2896;SDS011;1458;49.728;9.228;2023-05-07T09:55:24;9.20;;;9.00;;
2896;SDS011;1458;49.728;9.228;2023-05-07T09:57:53;8.70;;;8.60;;
2896;SDS011;1458;49.728;9.228;2023-05-07T10:00:22;8.83;;;8.63;;
2896;SDS011;1458;49.728;9.228;2023-05-07T10:02:59;8.30;;;8.20;;
2896;SDS011;1458;49.728;9.228;2023-05-07T10:05:40;8.20;;;8.10;;
2896;SDS011;1458;49.728;9.228;2023-05-07T10:08:10;8.80;;;8.60;;
2896;SDS011;1458;49.728;9.228;2023-05-07T10:10:39;9.20;;;9.00;;
2896;SDS011;1458;49.728;9.228;2023-05-07T10:13:11;8.50;;;8.40;;
2896;SDS011;1458;49.728;9.228;2023-05-07T10:15:44;8.37;;;8.27;;
2896;SDS011;1458;49.728;9.228;2023-05-07T10:18:13;8.40;;;8.30;;
2896;SDS011;1458;49.728;9.228;2023-05-07T10:20:46;8.20;;;8.10;;
2896;SDS011;1458;49.728;9.228;2023-05-07T10:23:16;8.20;;;8.10;;
2896;SDS011;1458;49.728;9.228;2023-05-07T10:25:54;8.03;;;7.93;;
2896;SDS011;1458;49.728;9.228;2023-05-07T10:28:23;7.73;;;7.63;;
2896;SDS011;1458;49.728;9.228;2023-05-07T10:30:57;7.40;;;7.30;;
2896;SDS011;1458;49.728;9.228;2023-05-07T10:33:41;7.87;;;7.77;;
2896;SDS011;1458;49.728;9.228;2023-05-07T10:36:10;7.90;;;7.80;;
2896;SDS011;1458;49.728;9.228;2023-05-07T10:38:38;8.60;;;8.50;;
2896;SDS011;1458;49.728;9.228;2023-05-07T10:41:06;9.90;;;9.70;;
2896;SDS011;1458;49.728;9.228;2023-05-07T10:43:39;9.30;;;9.10;;
2896;SDS011;1458;49.728;9.228;2023-05-07T10:46:14;9.30;;;9.10;;
2896;SDS011;1458;49.728;9.228;2023-05-07T10:49:12;8.80;;;8.60;;
2896;SDS011;1458;49.728;9.228;2023-05-07T10:52:13;9.40;;;9.20;;
2896;SDS011;1458;49.728;9.228;2023-05-07T10:55:18;10.07;;;9.87;;
2896;SDS011;1458;49.728;9.228;2023-05-07T10:58:02;9.50;;;9.30;;
2896;SDS011;1458;49.728;9.228;2023-05-07T11:00:57;9.20;;;9.00;;
2896;SDS011;1458;49.728;9.228;2023-05-07T11:03:32;9.47;;;9.27;;
2896;SDS011;1458;49.728;9.228;2023-05-07T11:06:09;9.20;;;9.00;;
2896;SDS011;1458;49.728;9.228;2023-05-07T11:08:52;9.20;;;9.00;;
2896;SDS011;1458;49.728;9.228;2023-05-07T11:11:44;9.30;;;9.10;;
2896;SDS011;1458;49.728;9.228;2023-05-07T11:17:17;9.90;;;9.70;;
2896;SDS011;1458;49.728;9.228;2023-05-07T11:19:51;9.50;;;9.30;;
2896;SDS011;1458;49.728;9.228;2023-05-07T11:22:41;9.90;;;9.70;;
2896;SDS011;1458;49.728;9.228;2023-05-07T11:25:25;11.03;;;10.73;;
2896;SDS011;1458;49.728;9.228;2023-05-07T11:28:03;10.30;;;10.10;;
2896;SDS011;1458;49.728;9.228;2023-05-07T11:30:32;10.73;;;10.43;;
2896;SDS011;1458;49.728;9.228;2023-05-07T11:33:02;11.10;;;10.80;;
2896;SDS011;1458;49.728;9.228;2023-05-07T11:35:32;11.10;;;10.80;;
2896;SDS011;1458;49.728;9.228;2023-05-07T11:38:02;11.13;;;10.83;;
2896;SDS011;1458;49.728;9.228;2023-05-07T11:40:32;10.90;;;10.60;;
2896;SDS011;1458;49.728;9.228;2023-05-07T11:43:02;11.00;;;10.70;;
2896;SDS011;1458;49.728;9.228;2023-05-07T11:45:37;10.97;;;10.67;;
2896;SDS011;1458;49.728;9.228;2023-05-07T11:48:05;10.83;;;10.53;;
2896;SDS011;1458;49.728;9.228;2023-05-07T11:50:33;10.83;;;10.53;;
2896;SDS011;1458;49.728;9.228;2023-05-07T11:53:08;11.00;;;10.70;;
2896;SDS011;1458;49.728;9.228;2023-05-07T11:55:35;10.83;;;10.53;;
2896;SDS011;1458;49.728;9.228;2023-05-07T11:58:03;11.07;;;10.77;;
2896;SDS011;1458;49.728;9.228;2023-05-07T12:00:30;10.90;;;10.60;;
2896;SDS011;1458;49.728;9.228;2023-05-07T12:03:02;10.67;;;10.37;;
2896;SDS011;1458;49.728;9.228;2023-05-07T12:05:30;11.27;;;10.97;;
2896;SDS011;1458;49.728;9.228;2023-05-07T12:07:58;10.40;;;10.20;;
2896;SDS011;1458;49.728;9.228;2023-05-07T12:10:28;10.40;;;10.20;;
2896;SDS011;1458;49.728;9.228;2023-05-07T12:12:56;10.17;;;9.97;;
2896;SDS011;1458;49.728;9.228;2023-05-07T12:15:24;10.40;;;10.20;;
2896;SDS011;1458;49.728;9.228;2023-05-07T12:17:52;10.60;;;10.30;;
2896;SDS011;1458;49.728;9.228;2023-05-07T12:20:20;10.00;;;9.80;;
2896;SDS011;1458;49.728;9.228;2023-05-07T12:22:47;9.60;;;9.40;;
2896;SDS011;1458;49.728;9.228;2023-05-07T12:25:18;9.80;;;9.60;;
2896;SDS011;1458;49.728;9.228;2023-05-07T12:27:52;9.60;;;9.40;;
2896;SDS011;1458;49.728;9.228;2023-05-07T12:30:19;10.77;;;10.47;;
2896;SDS011;1458;49.728;9.228;2023-05-07T12:32:47;10.00;;;9.80;;
2896;SDS011;1458;49.728;9.228;2023-05-07T12:35:25;9.70;;;9.50;;
2896;SDS011;1458;49.728;9.228;2023-05-07T12:37:54;10.10;;;9.90;;
2896;SDS011;1458;49.728;9.228;2023-05-07T12:40:24;9.80;;;9.60;;
2896;SDS011;1458;49.728;9.228;2023-05-07T12:43:03;9.90;;;9.70;;
2896;SDS011;1458;49.728;9.228;2023-05-07T12:45:31;10.10;;;9.90;;
2896;SDS011;1458;49.728;9.228;2023-05-07T12:48:04;10.50;;;10.30;;
2896;SDS011;1458;49.728;9.228;2023-05-07T12:50:32;10.40;;;10.20;;
2896;SDS011;1458;49.728;9.228;2023-05-07T12:53:00;10.40;;;10.20;;
2896;SDS011;1458;49.728;9.228;2023-05-07T12:55:31;10.70;;;10.40;;
2896;SDS011;1458;49.728;9.228;2023-05-07T12:58:08;10.70;;;10.40;;
2896;SDS011;1458;49.728;9.228;2023-05-07T13:00:43;10.90;;;10.60;;
2896;SDS011;1458;49.728;9.228;2023-05-07T13:03:11;10.17;;;9.97;;
2896;SDS011;1458;49.728;9.228;2023-05-07T13:05:47;10.40;;;10.20;;
2896;SDS011;1458;49.728;9.228;2023-05-07T13:08:23;10.27;;;10.07;;
2896;SDS011;1458;49.728;9.228;2023-05-07T13:10:52;10.10;;;9.90;;
2896;SDS011;1458;49.728;9.228;2023-05-07T13:13:21;10.33;;;10.13;;
2896;SDS011;1458;49.728;9.228;2023-05-07T13:15:48;10.87;;;10.57;;
2896;SDS011;1458;49.728;9.228;2023-05-07T13:18:16;10.70;;;10.40;;
2896;SDS011;1458;49.728;9.228;2023-05-07T13:20:44;11.20;;;10.90;;
2896;SDS011;1458;49.728;9.228;2023-05-07T13:23:12;11.00;;;10.70;;
2896;SDS011;1458;49.728;9.228;2023-05-07T13:25:39;10.57;;;10.30;;
2896;SDS011;1458;49.728;9.228;2023-05-07T13:28:07;11.10;;;10.80;;
2896;SDS011;1458;49.728;9.228;2023-05-07T13:30:36;11.00;;;10.70;;
2896;SDS011;1458;49.728;9.228;2023-05-07T13:33:03;11.40;;;11.10;;
2896;SDS011;1458;49.728;9.228;2023-05-07T13:35:31;11.40;;;11.10;;
2896;SDS011;1458;49.728;9.228;2023-05-07T13:37:58;11.60;;;11.30;;
2896;SDS011;1458;49.728;9.228;2023-05-07T13:40:26;11.20;;;10.90;;
2896;SDS011;1458;49.728;9.228;2023-05-07T13:42:53;11.20;;;10.90;;
2896;SDS011;1458;49.728;9.228;2023-05-07T13:45:23;11.70;;;11.40;;
2896;SDS011;1458;49.728;9.228;2023-05-07T13:47:53;11.60;;;11.30;;
2896;SDS011;1458;49.728;9.228;2023-05-07T13:50:21;11.37;;;11.07;;
2896;SDS011;1458;49.728;9.228;2023-05-07T13:52:48;11.60;;;11.30;;
2896;SDS011;1458;49.728;9.228;2023-05-07T13:55:16;11.40;;;11.10;;
2896;SDS011;1458;49.728;9.228;2023-05-07T13:57:45;12.10;;;11.80;;
2896;SDS011;1458;49.728;9.228;2023-05-07T14:00:13;11.93;;;11.63;;
2896;SDS011;1458;49.728;9.228;2023-05-07T14:02:41;11.90;;;11.60;;
2896;SDS011;1458;49.728;9.228;2023-05-07T14:05:10;11.80;;;11.50;;
2896;SDS011;1458;49.728;9.228;2023-05-07T14:07:38;11.70;;;11.40;;
2896;SDS011;1458;49.728;9.228;2023-05-07T14:10:06;12.07;;;11.77;;
2896;SDS011;1458;49.728;9.228;2023-05-07T14:12:36;11.80;;;11.50;;
2896;SDS011;1458;49.728;9.228;2023-05-07T14:15:04;11.90;;;11.60;;
2896;SDS011;1458;49.728;9.228;2023-05-07T14:17:33;11.47;;;11.17;;
2896;SDS011;1458;49.728;9.228;2023-05-07T14:20:00;11.90;;;11.60;;
2896;SDS011;1458;49.728;9.228;2023-05-07T14:22:29;11.60;;;11.30;;
2896;SDS011;1458;49.728;9.228;2023-05-07T14:24:57;12.60;;;12.20;;
2896;SDS011;1458;49.728;9.228;2023-05-07T14:27:24;11.63;;;11.33;;
2896;SDS011;1458;49.728;9.228;2023-05-07T14:29:52;11.80;;;11.50;;
2896;SDS011;1458;49.728;9.228;2023-05-07T14:32:21;11.70;;;11.40;;
2896;SDS011;1458;49.728;9.228;2023-05-07T14:34:49;11.87;;;11.57;;
2896;SDS011;1458;49.728;9.228;2023-05-07T14:37:17;11.93;;;11.63;;
2896;SDS011;1458;49.728;9.228;2023-05-07T14:39:46;11.93;;;11.63;;
2896;SDS011;1458;49.728;9.228;2023-05-07T14:42:14;11.80;;;11.50;;
2896;SDS011;1458;49.728;9.228;2023-05-07T14:44:41;11.60;;;11.30;;
2896;SDS011;1458;49.728;9.228;2023-05-07T14:47:10;11.50;;;11.20;;
2896;SDS011;1458;49.728;9.228;2023-05-07T14:49:38;11.63;;;11.33;;
2896;SDS011;1458;49.728;9.228;2023-05-07T14:52:05;11.73;;;11.43;;
2896;SDS011;1458;49.728;9.228;2023-05-07T14:54:35;11.30;;;11.00;;
2896;SDS011;1458;49.728;9.228;2023-05-07T14:57:06;11.40;;;11.10;;
2896;SDS011;1458;49.728;9.228;2023-05-07T14:59:35;11.83;;;11.53;;
2896;SDS011;1458;49.728;9.228;2023-05-07T15:02:04;11.73;;;11.43;;
2896;SDS011;1458;49.728;9.228;2023-05-07T15:04:33;11.70;;;11.40;;
2896;SDS011;1458;49.728;9.228;2023-05-07T15:07:00;12.03;;;11.70;;
2896;SDS011;1458;49.728;9.228;2023-05-07T15:09:28;11.80;;;11.50;;
2896;SDS011;1458;49.728;9.228;2023-05-07T15:11:57;12.20;;;11.80;;
2896;SDS011;1458;49.728;9.228;2023-05-07T15:14:26;12.20;;;11.80;;
2896;SDS011;1458;49.728;9.228;2023-05-07T15:16:54;12.30;;;11.90;;
2896;SDS011;1458;49.728;9.228;2023-05-07T15:19:21;12.10;;;11.70;;
2896;SDS011;1458;49.728;9.228;2023-05-07T15:21:54;12.20;;;11.80;;
2896;SDS011;1458;49.728;9.228;2023-05-07T15:24:22;12.50;;;12.10;;
2896;SDS011;1458;49.728;9.228;2023-05-07T15:26:52;11.87;;;11.57;;